sensor_id;sensor_type;location;lat;lon;timestamp;P1;durP1;ratioP1;P2;durP2;ratioP2
19095;SDS011;9680;52.520;13.332;2024-01-30T00:01:45;13.93;;;5.27;;
19095;SDS011;9680;52.520;13.332;2024-01-30T00:04:12;14.97;;;5.50;;
19095;SDS011;9680;52.520;13.332;2024-01-30T00:06:39;11.77;;;5.03;;
19095;SDS011;9680;52.520;13.332;2024-01-30T00:09:05;13.20;;;5.43;;
19095;SDS011;9680;52.520;13.332;2024-01-30T00:11:33;16.53;;;5.30;;
19095;SDS011;9680;52.520;13.332;2024-01-30T00:13:59;11.67;;;5.50;;
19095;SDS011;9680;52.520;13.332;2024-01-30T00:16:26;14.63;;;5.20;;
19095;SDS011;9680;52.520;13.332;2024-01-30T00:18:56;12.87;;;5.70;;
19095;SDS011;9680;52.520;13.332;2024-01-30T00:21:23;16.90;;;5.20;;
19095;SDS011;9680;52.520;13.332;2024-01-30T00:23:50;13.40;;;5.30;;
19095;SDS011;9680;52.520;13.332;2024-01-30T00:26:17;13.83;;;5.43;;
19095;SDS011;9680;52.520;13.332;2024-01-30T00:28:43;11.77;;;5.23;;
19095;SDS011;9680;52.520;13.332;2024-01-30T00:31:10;13.20;;;5.13;;
19095;SDS011;9680;52.520;13.332;2024-01-30T00:33:38;16.07;;;5.17;;
19095;SDS011;9680;52.520;13.332;2024-01-30T00:36:07;14.40;;;5.43;;
19095;SDS011;9680;52.520;13.332;2024-01-30T00:38:34;11.70;;;4.87;;
19095;SDS011;9680;52.520;13.332;2024-01-30T00:41:01;16.90;;;5.33;;
19095;SDS011;9680;52.520;13.332;2024-01-30T00:43:28;13.87;;;5.60;;
19095;SDS011;9680;52.520;13.332;2024-01-30T00:45:55;15.23;;;4.90;;
19095;SDS011;9680;52.520;13.332;2024-01-30T00:48:21;15.43;;;4.90;;
19095;SDS011;9680;52.520;13.332;2024-01-30T00:50:48;12.47;;;5.20;;
19095;SDS011;9680;52.520;13.332;2024-01-30T00:53:16;14.97;;;5.60;;
19095;SDS011;9680;52.520;13.332;2024-01-30T00:55:43;13.47;;;4.80;;
19095;SDS011;9680;52.520;13.332;2024-01-30T00:58:10;10.27;;;4.80;;
19095;SDS011;9680;52.520;13.332;2024-01-30T01:00:37;12.57;;;4.97;;
19095;SDS011;9680;52.520;13.332;2024-01-30T01:03:04;12.83;;;4.77;;
19095;SDS011;9680;52.520;13.332;2024-01-30T01:05:31;13.03;;;5.20;;
19095;SDS011;9680;52.520;13.332;2024-01-30T01:07:57;15.67;;;5.47;;
19095;SDS011;9680;52.520;13.332;2024-01-30T01:10:26;10.37;;;4.27;;
19095;SDS011;9680;52.520;13.332;2024-01-30T01:12:53;11.30;;;4.43;;
19095;SDS011;9680;52.520;13.332;2024-01-30T01:15:29;13.00;;;5.30;;
19095;SDS011;9680;52.520;13.332;2024-01-30T01:17:57;13.17;;;5.17;;
19095;SDS011;9680;52.520;13.332;2024-01-30T01:20:24;13.00;;;4.87;;
19095;SDS011;9680;52.520;13.332;2024-01-30T01:22:51;14.50;;;5.70;;
19095;SDS011;9680;52.520;13.332;2024-01-30T01:25:19;14.23;;;4.93;;
19095;SDS011;9680;52.520;13.332;2024-01-30T01:27:47;11.93;;;5.23;;
19095;SDS011;9680;52.520;13.332;2024-01-30T01:30:17;11.07;;;4.40;;
19095;SDS011;9680;52.520;13.332;2024-01-30T01:32:47;12.63;;;5.03;;
19095;SDS011;9680;52.520;13.332;2024-01-30T01:35:20;10.83;;;4.80;;
19095;SDS011;9680;52.520;13.332;2024-01-30T01:37:47;12.33;;;4.57;;
19095;SDS011;9680;52.520;13.332;2024-01-30T01:40:20;10.77;;;5.00;;
19095;SDS011;9680;52.520;13.332;2024-01-30T01:42:50;13.23;;;4.97;;
19095;SDS011;9680;52.520;13.332;2024-01-30T01:45:18;13.43;;;5.00;;
19095;SDS011;9680;52.520;13.332;2024-01-30T01:47:46;14.13;;;5.43;;
19095;SDS011;9680;52.520;13.332;2024-01-30T01:50:15;10.60;;;4.57;;
19095;SDS011;9680;52.520;13.332;2024-01-30T01:52:43;10.47;;;5.20;;
19095;SDS011;9680;52.520;13.332;2024-01-30T01:55:11;14.17;;;5.03;;
19095;SDS011;9680;52.520;13.332;2024-01-30T01:57:39;13.00;;;5.30;;
19095;SDS011;9680;52.520;13.332;2024-01-30T02:00:13;13.17;;;4.50;;
19095;SDS011;9680;52.520;13.332;2024-01-30T02:02:41;11.13;;;4.97;;
19095;SDS011;9680;52.520;13.332;2024-01-30T02:05:11;14.03;;;5.23;;
19095;SDS011;9680;52.520;13.332;2024-01-30T02:07:38;11.33;;;4.90;;
19095;SDS011;9680;52.520;13.332;2024-01-30T02:10:06;13.37;;;5.00;;
19095;SDS011;9680;52.520;13.332;2024-01-30T02:12:34;12.87;;;5.50;;
19095;SDS011;9680;52.520;13.332;2024-01-30T02:15:01;14.10;;;5.60;;
19095;SDS011;9680;52.520;13.332;2024-01-30T02:17:29;11.80;;;5.27;;
19095;SDS011;9680;52.520;13.332;2024-01-30T02:19:56;11.13;;;5.20;;
19095;SDS011;9680;52.520;13.332;2024-01-30T02:22:33;15.03;;;5.67;;
19095;SDS011;9680;52.520;13.332;2024-01-30T02:25:01;11.83;;;5.13;;
19095;SDS011;9680;52.520;13.332;2024-01-30T02:27:28;12.43;;;5.33;;
19095;SDS011;9680;52.520;13.332;2024-01-30T02:29:55;14.47;;;5.50;;
19095;SDS011;9680;52.520;13.332;2024-01-30T02:32:22;13.40;;;5.13;;
19095;SDS011;9680;52.520;13.332;2024-01-30T02:34:48;16.23;;;5.77;;
19095;SDS011;9680;52.520;13.332;2024-01-30T02:37:16;14.00;;;5.47;;
19095;SDS011;9680;52.520;13.332;2024-01-30T02:39:44;12.10;;;5.23;;
19095;SDS011;9680;52.520;13.332;2024-01-30T02:42:11;13.13;;;4.93;;
19095;SDS011;9680;52.520;13.332;2024-01-30T02:44:44;13.77;;;5.40;;
19095;SDS011;9680;52.520;13.332;2024-01-30T02:47:19;13.33;;;5.53;;
19095;SDS011;9680;52.520;13.332;2024-01-30T02:49:46;11.93;;;5.07;;
19095;SDS011;9680;52.520;13.332;2024-01-30T02:52:13;14.67;;;5.30;;
19095;SDS011;9680;52.520;13.332;2024-01-30T02:54:40;12.83;;;5.30;;
19095;SDS011;9680;52.520;13.332;2024-01-30T02:57:08;15.37;;;5.57;;
19095;SDS011;9680;52.520;13.332;2024-01-30T02:59:35;10.43;;;4.67;;
19095;SDS011;9680;52.520;13.332;2024-01-30T03:02:02;17.33;;;5.80;;
19095;SDS011;9680;52.520;13.332;2024-01-30T03:04:28;13.73;;;5.17;;
19095;SDS011;9680;52.520;13.332;2024-01-30T03:06:55;19.03;;;5.50;;
19095;SDS011;9680;52.520;13.332;2024-01-30T03:09:22;14.50;;;5.50;;
19095;SDS011;9680;52.520;13.332;2024-01-30T03:11:49;10.43;;;5.30;;
19095;SDS011;9680;52.520;13.332;2024-01-30T03:14:17;15.63;;;5.60;;
19095;SDS011;9680;52.520;13.332;2024-01-30T03:16:44;20.97;;;5.67;;
19095;SDS011;9680;52.520;13.332;2024-01-30T03:19:11;12.07;;;5.20;;
19095;SDS011;9680;52.520;13.332;2024-01-30T03:21:38;12.67;;;5.13;;
19095;SDS011;9680;52.520;13.332;2024-01-30T03:24:05;10.50;;;5.00;;
19095;SDS011;9680;52.520;13.332;2024-01-30T03:26:32;14.43;;;5.37;;
19095;SDS011;9680;52.520;13.332;2024-01-30T03:28:59;13.83;;;5.53;;
19095;SDS011;9680;52.520;13.332;2024-01-30T03:31:27;15.57;;;5.40;;
19095;SDS011;9680;52.520;13.332;2024-01-30T03:33:53;14.13;;;5.23;;
19095;SDS011;9680;52.520;13.332;2024-01-30T03:36:20;10.97;;;4.70;;
19095;SDS011;9680;52.520;13.332;2024-01-30T03:38:47;12.33;;;4.93;;
19095;SDS011;9680;52.520;13.332;2024-01-30T03:41:14;13.83;;;5.50;;
19095;SDS011;9680;52.520;13.332;2024-01-30T03:43:41;14.40;;;5.60;;
19095;SDS011;9680;52.520;13.332;2024-01-30T03:46:08;12.60;;;4.93;;
19095;SDS011;9680;52.520;13.332;2024-01-30T03:48:39;13.00;;;5.50;;
19095;SDS011;9680;52.520;13.332;2024-01-30T03:51:06;13.40;;;5.57;;
19095;SDS011;9680;52.520;13.332;2024-01-30T03:53:32;14.30;;;5.70;;
19095;SDS011;9680;52.520;13.332;2024-01-30T03:55:59;16.00;;;5.90;;
19095;SDS011;9680;52.520;13.332;2024-01-30T03:58:26;13.20;;;5.77;;
19095;SDS011;9680;52.520;13.332;2024-01-30T04:00:53;12.17;;;5.23;;
19095;SDS011;9680;52.520;13.332;2024-01-30T04:03:20;11.73;;;5.30;;
19095;SDS011;9680;52.520;13.332;2024-01-30T04:05:48;13.10;;;5.23;;
19095;SDS011;9680;52.520;13.332;2024-01-30T04:08:14;12.37;;;5.47;;
19095;SDS011;9680;52.520;13.332;2024-01-30T04:10:41;13.57;;;5.13;;
19095;SDS011;9680;52.520;13.332;2024-01-30T04:13:08;14.10;;;5.13;;
19095;SDS011;9680;52.520;13.332;2024-01-30T04:15:35;15.17;;;5.77;;
19095;SDS011;9680;52.520;13.332;2024-01-30T04:18:02;11.93;;;5.53;;
19095;SDS011;9680;52.520;13.332;2024-01-30T04:20:29;16.57;;;5.73;;
19095;SDS011;9680;52.520;13.332;2024-01-30T04:22:57;11.97;;;5.90;;
19095;SDS011;9680;52.520;13.332;2024-01-30T04:25:24;14.93;;;6.03;;
19095;SDS011;9680;52.520;13.332;2024-01-30T04:27:51;11.93;;;5.07;;
19095;SDS011;9680;52.520;13.332;2024-01-30T04:30:18;19.23;;;5.70;;
19095;SDS011;9680;52.520;13.332;2024-01-30T04:32:45;12.83;;;5.57;;
19095;SDS011;9680;52.520;13.332;2024-01-30T04:35:11;13.50;;;5.67;;
19095;SDS011;9680;52.520;13.332;2024-01-30T04:37:38;12.37;;;5.37;;
19095;SDS011;9680;52.520;13.332;2024-01-30T04:40:07;14.57;;;5.83;;
19095;SDS011;9680;52.520;13.332;2024-01-30T04:42:34;14.50;;;5.37;;
19095;SDS011;9680;52.520;13.332;2024-01-30T04:45:01;15.73;;;5.17;;
19095;SDS011;9680;52.520;13.332;2024-01-30T04:47:28;12.80;;;5.73;;
19095;SDS011;9680;52.520;13.332;2024-01-30T04:49:55;12.47;;;5.20;;
19095;SDS011;9680;52.520;13.332;2024-01-30T04:52:22;12.80;;;5.47;;
19095;SDS011;9680;52.520;13.332;2024-01-30T04:54:49;15.67;;;5.83;;
19095;SDS011;9680;52.520;13.332;2024-01-30T04:57:17;12.33;;;5.40;;
19095;SDS011;9680;52.520;13.332;2024-01-30T04:59:44;15.33;;;5.67;;
19095;SDS011;9680;52.520;13.332;2024-01-30T05:02:11;16.07;;;5.50;;
19095;SDS011;9680;52.520;13.332;2024-01-30T05:04:38;12.30;;;5.00;;
19095;SDS011;9680;52.520;13.332;2024-01-30T05:07:04;16.17;;;5.23;;
19095;SDS011;9680;52.520;13.332;2024-01-30T05:09:31;11.57;;;5.40;;
19095;SDS011;9680;52.520;13.332;2024-01-30T05:11:58;13.20;;;5.47;;
19095;SDS011;9680;52.520;13.332;2024-01-30T05:14:26;10.83;;;5.70;;
19095;SDS011;9680;52.520;13.332;2024-01-30T05:16:53;11.77;;;5.20;;
19095;SDS011;9680;52.520;13.332;2024-01-30T05:19:21;10.70;;;5.40;;
19095;SDS011;9680;52.520;13.332;2024-01-30T05:21:48;14.23;;;5.80;;
19095;SDS011;9680;52.520;13.332;2024-01-30T05:24:15;15.40;;;5.63;;
19095;SDS011;9680;52.520;13.332;2024-01-30T05:26:43;12.27;;;5.27;;
19095;SDS011;9680;52.520;13.332;2024-01-30T05:29:10;13.80;;;5.53;;
19095;SDS011;9680;52.520;13.332;2024-01-30T05:31:38;15.10;;;6.10;;
19095;SDS011;9680;52.520;13.332;2024-01-30T05:34:09;12.37;;;5.80;;
19095;SDS011;9680;52.520;13.332;2024-01-30T05:37:13;11.93;;;5.50;;
19095;SDS011;9680;52.520;13.332;2024-01-30T05:39:46;18.83;;;5.70;;
19095;SDS011;9680;52.520;13.332;2024-01-30T05:42:13;13.53;;;5.50;;
19095;SDS011;9680;52.520;13.332;2024-01-30T05:44:42;16.40;;;5.53;;
19095;SDS011;9680;52.520;13.332;2024-01-30T05:47:14;16.87;;;5.37;;
19095;SDS011;9680;52.520;13.332;2024-01-30T05:49:46;16.30;;;5.67;;
19095;SDS011;9680;52.520;13.332;2024-01-30T05:52:58;14.80;;;5.37;;
19095;SDS011;9680;52.520;13.332;2024-01-30T05:55:27;16.00;;;6.00;;
19095;SDS011;9680;52.520;13.332;2024-01-30T05:57:58;12.73;;;5.77;;
19095;SDS011;9680;52.520;13.332;2024-01-30T06:00:29;14.00;;;5.90;;
19095;SDS011;9680;52.520;13.332;2024-01-30T06:03:00;15.30;;;6.03;;
19095;SDS011;9680;52.520;13.332;2024-01-30T06:05:28;13.23;;;5.53;;
19095;SDS011;9680;52.520;13.332;2024-01-30T06:07:55;11.43;;;5.50;;
19095;SDS011;9680;52.520;13.332;2024-01-30T06:10:22;13.63;;;5.50;;
19095;SDS011;9680;52.520;13.332;2024-01-30T06:12:49;15.63;;;6.00;;
19095;SDS011;9680;52.520;13.332;2024-01-30T06:15:17;16.03;;;6.40;;
19095;SDS011;9680;52.520;13.332;2024-01-30T06:17:44;13.20;;;5.67;;
19095;SDS011;9680;52.520;13.332;2024-01-30T06:20:12;18.87;;;6.07;;
19095;SDS011;9680;52.520;13.332;2024-01-30T06:22:40;15.90;;;6.17;;
19095;SDS011;9680;52.520;13.332;2024-01-30T06:25:10;13.07;;;5.87;;
19095;SDS011;9680;52.520;13.332;2024-01-30T06:27:37;13.77;;;5.60;;
19095;SDS011;9680;52.520;13.332;2024-01-30T06:30:05;15.80;;;5.30;;
19095;SDS011;9680;52.520;13.332;2024-01-30T06:32:32;9.87;;;4.97;;
19095;SDS011;9680;52.520;13.332;2024-01-30T06:35:00;12.77;;;5.87;;
19095;SDS011;9680;52.520;13.332;2024-01-30T06:37:28;13.80;;;5.67;;
19095;SDS011;9680;52.520;13.332;2024-01-30T06:39:55;19.13;;;5.90;;
19095;SDS011;9680;52.520;13.332;2024-01-30T06:42:23;12.43;;;5.40;;
19095;SDS011;9680;52.520;13.332;2024-01-30T06:44:49;17.27;;;6.27;;
19095;SDS011;9680;52.520;13.332;2024-01-30T06:47:16;13.83;;;5.40;;
19095;SDS011;9680;52.520;13.332;2024-01-30T06:49:43;15.03;;;6.20;;
19095;SDS011;9680;52.520;13.332;2024-01-30T06:52:10;14.63;;;5.50;;
19095;SDS011;9680;52.520;13.332;2024-01-30T06:54:39;11.60;;;5.57;;
19095;SDS011;9680;52.520;13.332;2024-01-30T06:57:06;16.77;;;5.67;;
19095;SDS011;9680;52.520;13.332;2024-01-30T06:59:37;13.13;;;5.33;;
19095;SDS011;9680;52.520;13.332;2024-01-30T07:02:08;14.67;;;5.73;;
19095;SDS011;9680;52.520;13.332;2024-01-30T07:04:35;15.03;;;5.53;;
19095;SDS011;9680;52.520;13.332;2024-01-30T07:07:06;19.80;;;6.93;;
19095;SDS011;9680;52.520;13.332;2024-01-30T07:09:37;15.30;;;5.87;;
19095;SDS011;9680;52.520;13.332;2024-01-30T07:12:06;17.20;;;6.47;;
19095;SDS011;9680;52.520;13.332;2024-01-30T07:14:36;15.63;;;5.90;;
19095;SDS011;9680;52.520;13.332;2024-01-30T07:17:40;14.60;;;5.90;;
19095;SDS011;9680;52.520;13.332;2024-01-30T07:20:32;16.67;;;6.80;;
19095;SDS011;9680;52.520;13.332;2024-01-30T07:29:58;16.30;;;6.70;;
19095;SDS011;9680;52.520;13.332;2024-01-30T07:32:25;15.57;;;6.37;;
19095;SDS011;9680;52.520;13.332;2024-01-30T07:34:55;15.47;;;6.40;;
19095;SDS011;9680;52.520;13.332;2024-01-30T07:37:23;16.63;;;6.17;;
19095;SDS011;9680;52.520;13.332;2024-01-30T07:39:50;23.23;;;7.20;;
19095;SDS011;9680;52.520;13.332;2024-01-30T07:42:17;18.73;;;6.23;;
19095;SDS011;9680;52.520;13.332;2024-01-30T07:44:45;16.03;;;6.07;;
19095;SDS011;9680;52.520;13.332;2024-01-30T07:47:13;15.90;;;5.97;;
19095;SDS011;9680;52.520;13.332;2024-01-30T07:49:41;15.53;;;6.30;;
19095;SDS011;9680;52.520;13.332;2024-01-30T07:52:08;19.23;;;6.47;;
19095;SDS011;9680;52.520;13.332;2024-01-30T07:54:40;16.03;;;6.27;;
19095;SDS011;9680;52.520;13.332;2024-01-30T07:57:23;14.30;;;6.30;;
19095;SDS011;9680;52.520;13.332;2024-01-30T07:59:52;16.00;;;5.97;;
19095;SDS011;9680;52.520;13.332;2024-01-30T08:02:19;16.13;;;6.30;;
19095;SDS011;9680;52.520;13.332;2024-01-30T08:04:46;17.20;;;6.57;;
19095;SDS011;9680;52.520;13.332;2024-01-30T08:07:16;17.30;;;6.30;;
19095;SDS011;9680;52.520;13.332;2024-01-30T08:10:21;15.40;;;6.37;;
19095;SDS011;9680;52.520;13.332;2024-01-30T08:13:03;19.80;;;7.20;;
19095;SDS011;9680;52.520;13.332;2024-01-30T08:16:13;15.53;;;6.17;;
19095;SDS011;9680;52.520;13.332;2024-01-30T08:21:41;16.83;;;6.37;;
19095;SDS011;9680;52.520;13.332;2024-01-30T08:24:08;25.40;;;9.20;;
19095;SDS011;9680;52.520;13.332;2024-01-30T08:26:35;17.70;;;6.63;;
19095;SDS011;9680;52.520;13.332;2024-01-30T08:29:04;15.50;;;6.23;;
19095;SDS011;9680;52.520;13.332;2024-01-30T08:35:12;17.10;;;6.43;;
19095;SDS011;9680;52.520;13.332;2024-01-30T08:37:42;15.87;;;6.33;;
19095;SDS011;9680;52.520;13.332;2024-01-30T08:40:09;17.87;;;6.67;;
19095;SDS011;9680;52.520;13.332;2024-01-30T08:42:39;15.23;;;6.17;;
19095;SDS011;9680;52.520;13.332;2024-01-30T08:45:07;16.60;;;6.47;;
19095;SDS011;9680;52.520;13.332;2024-01-30T08:47:37;18.33;;;6.37;;
19095;SDS011;9680;52.520;13.332;2024-01-30T08:50:06;21.20;;;6.13;;
19095;SDS011;9680;52.520;13.332;2024-01-30T08:52:36;15.13;;;6.40;;
19095;SDS011;9680;52.520;13.332;2024-01-30T08:55:04;14.63;;;6.40;;
19095;SDS011;9680;52.520;13.332;2024-01-30T08:57:33;15.10;;;6.20;;
19095;SDS011;9680;52.520;13.332;2024-01-30T09:12:25;16.67;;;6.07;;
19095;SDS011;9680;52.520;13.332;2024-01-30T09:14:51;16.97;;;5.93;;
19095;SDS011;9680;52.520;13.332;2024-01-30T09:17:17;15.60;;;6.67;;
19095;SDS011;9680;52.520;13.332;2024-01-30T09:19:45;17.97;;;6.33;;
19095;SDS011;9680;52.520;13.332;2024-01-30T09:22:12;13.70;;;6.03;;
19095;SDS011;9680;52.520;13.332;2024-01-30T09:24:39;14.73;;;6.37;;
19095;SDS011;9680;52.520;13.332;2024-01-30T09:27:07;16.87;;;5.97;;
19095;SDS011;9680;52.520;13.332;2024-01-30T09:29:35;16.10;;;6.43;;
19095;SDS011;9680;52.520;13.332;2024-01-30T09:32:02;16.53;;;6.30;;
19095;SDS011;9680;52.520;13.332;2024-01-30T09:34:30;16.87;;;6.33;;
19095;SDS011;9680;52.520;13.332;2024-01-30T09:36:56;17.07;;;6.23;;
19095;SDS011;9680;52.520;13.332;2024-01-30T09:39:23;16.60;;;6.47;;
19095;SDS011;9680;52.520;13.332;2024-01-30T09:41:52;19.93;;;6.87;;
19095;SDS011;9680;52.520;13.332;2024-01-30T09:44:26;12.27;;;6.20;;
19095;SDS011;9680;52.520;13.332;2024-01-30T09:46:56;17.07;;;6.47;;
19095;SDS011;9680;52.520;13.332;2024-01-30T09:49:29;16.37;;;6.13;;
19095;SDS011;9680;52.520;13.332;2024-01-30T09:51:58;15.30;;;5.77;;
19095;SDS011;9680;52.520;13.332;2024-01-30T09:54:25;14.80;;;5.60;;
19095;SDS011;9680;52.520;13.332;2024-01-30T09:56:51;13.57;;;5.47;;
19095;SDS011;9680;52.520;13.332;2024-01-30T09:59:18;12.53;;;5.87;;
19095;SDS011;9680;52.520;13.332;2024-01-30T10:01:45;13.53;;;5.57;;
19095;SDS011;9680;52.520;13.332;2024-01-30T10:04:13;12.90;;;6.00;;
19095;SDS011;9680;52.520;13.332;2024-01-30T10:06:40;13.97;;;5.87;;
19095;SDS011;9680;52.520;13.332;2024-01-30T10:09:08;16.13;;;5.70;;
19095;SDS011;9680;52.520;13.332;2024-01-30T10:11:34;17.03;;;6.13;;
19095;SDS011;9680;52.520;13.332;2024-01-30T10:14:02;16.27;;;5.90;;
19095;SDS011;9680;52.520;13.332;2024-01-30T10:16:29;19.53;;;6.27;;
19095;SDS011;9680;52.520;13.332;2024-01-30T10:18:56;13.77;;;5.80;;
19095;SDS011;9680;52.520;13.332;2024-01-30T10:21:24;13.10;;;5.53;;
19095;SDS011;9680;52.520;13.332;2024-01-30T10:23:51;12.33;;;5.53;;
19095;SDS011;9680;52.520;13.332;2024-01-30T10:26:18;12.87;;;5.37;;
19095;SDS011;9680;52.520;13.332;2024-01-30T10:28:45;15.17;;;5.70;;
19095;SDS011;9680;52.520;13.332;2024-01-30T10:31:16;13.03;;;5.67;;
19095;SDS011;9680;52.520;13.332;2024-01-30T10:33:43;17.17;;;5.93;;
19095;SDS011;9680;52.520;13.332;2024-01-30T10:36:10;12.43;;;6.20;;
19095;SDS011;9680;52.520;13.332;2024-01-30T10:38:41;16.17;;;5.80;;
19095;SDS011;9680;52.520;13.332;2024-01-30T10:41:09;12.57;;;5.23;;
19095;SDS011;9680;52.520;13.332;2024-01-30T10:43:40;13.30;;;5.43;;
19095;SDS011;9680;52.520;13.332;2024-01-30T10:46:10;15.70;;;5.80;;
19095;SDS011;9680;52.520;13.332;2024-01-30T10:48:43;11.63;;;5.43;;
19095;SDS011;9680;52.520;13.332;2024-01-30T10:51:14;12.43;;;5.20;;
19095;SDS011;9680;52.520;13.332;2024-01-30T10:53:43;12.47;;;4.73;;
19095;SDS011;9680;52.520;13.332;2024-01-30T10:56:14;14.63;;;5.20;;
19095;SDS011;9680;52.520;13.332;2024-01-30T10:58:47;11.53;;;5.27;;
19095;SDS011;9680;52.520;13.332;2024-01-30T11:01:15;10.63;;;5.10;;
19095;SDS011;9680;52.520;13.332;2024-01-30T11:03:42;10.87;;;4.93;;
19095;SDS011;9680;52.520;13.332;2024-01-30T11:06:10;10.20;;;4.70;;
19095;SDS011;9680;52.520;13.332;2024-01-30T11:08:39;12.47;;;4.83;;
19095;SDS011;9680;52.520;13.332;2024-01-30T11:11:09;14.43;;;5.30;;
19095;SDS011;9680;52.520;13.332;2024-01-30T11:13:37;13.23;;;5.20;;
19095;SDS011;9680;52.520;13.332;2024-01-30T11:16:04;11.90;;;5.17;;
19095;SDS011;9680;52.520;13.332;2024-01-30T11:18:32;12.40;;;4.90;;
19095;SDS011;9680;52.520;13.332;2024-01-30T11:21:04;8.70;;;4.60;;
19095;SDS011;9680;52.520;13.332;2024-01-30T11:26:29;18.13;;;5.70;;
19095;SDS011;9680;52.520;13.332;2024-01-30T11:28:57;10.47;;;5.10;;
19095;SDS011;9680;52.520;13.332;2024-01-30T11:31:24;13.87;;;5.30;;
19095;SDS011;9680;52.520;13.332;2024-01-30T11:33:52;11.90;;;5.03;;
19095;SDS011;9680;52.520;13.332;2024-01-30T11:36:20;13.47;;;5.20;;
19095;SDS011;9680;52.520;13.332;2024-01-30T11:38:51;9.93;;;4.73;;
19095;SDS011;9680;52.520;13.332;2024-01-30T11:41:18;18.27;;;5.50;;
19095;SDS011;9680;52.520;13.332;2024-01-30T11:43:52;14.40;;;4.90;;
19095;SDS011;9680;52.520;13.332;2024-01-30T11:46:19;13.73;;;5.70;;
19095;SDS011;9680;52.520;13.332;2024-01-30T11:48:46;11.10;;;5.23;;
19095;SDS011;9680;52.520;13.332;2024-01-30T11:51:12;12.80;;;5.30;;
19095;SDS011;9680;52.520;13.332;2024-01-30T11:53:40;12.73;;;5.37;;
19095;SDS011;9680;52.520;13.332;2024-01-30T11:56:07;13.17;;;5.50;;
19095;SDS011;9680;52.520;13.332;2024-01-30T11:58:34;11.93;;;5.20;;
19095;SDS011;9680;52.520;13.332;2024-01-30T12:01:02;13.03;;;5.63;;
19095;SDS011;9680;52.520;13.332;2024-01-30T12:03:29;13.03;;;5.60;;
19095;SDS011;9680;52.520;13.332;2024-01-30T12:05:57;16.87;;;5.30;;
19095;SDS011;9680;52.520;13.332;2024-01-30T12:08:24;13.03;;;5.83;;
19095;SDS011;9680;52.520;13.332;2024-01-30T12:10:55;14.23;;;5.47;;
19095;SDS011;9680;52.520;13.332;2024-01-30T12:13:23;12.37;;;5.50;;
19095;SDS011;9680;52.520;13.332;2024-01-30T12:15:50;14.93;;;5.50;;
19095;SDS011;9680;52.520;13.332;2024-01-30T12:18:19;10.57;;;5.40;;
19095;SDS011;9680;52.520;13.332;2024-01-30T12:20:56;13.73;;;6.17;;
19095;SDS011;9680;52.520;13.332;2024-01-30T12:23:34;15.20;;;6.10;;
19095;SDS011;9680;52.520;13.332;2024-01-30T12:26:01;16.70;;;6.37;;
19095;SDS011;9680;52.520;13.332;2024-01-30T12:28:32;14.17;;;5.67;;
19095;SDS011;9680;52.520;13.332;2024-01-30T12:31:01;12.90;;;5.70;;
19095;SDS011;9680;52.520;13.332;2024-01-30T12:33:29;16.97;;;6.17;;
19095;SDS011;9680;52.520;13.332;2024-01-30T12:35:57;12.00;;;5.83;;
19095;SDS011;9680;52.520;13.332;2024-01-30T12:38:28;11.37;;;5.47;;
19095;SDS011;9680;52.520;13.332;2024-01-30T12:40:54;14.30;;;6.03;;
19095;SDS011;9680;52.520;13.332;2024-01-30T12:43:21;18.97;;;7.20;;
19095;SDS011;9680;52.520;13.332;2024-01-30T12:45:48;15.00;;;6.17;;
19095;SDS011;9680;52.520;13.332;2024-01-30T12:48:16;17.57;;;6.43;;
19095;SDS011;9680;52.520;13.332;2024-01-30T12:50:44;14.23;;;5.47;;
19095;SDS011;9680;52.520;13.332;2024-01-30T12:53:10;12.80;;;5.50;;
19095;SDS011;9680;52.520;13.332;2024-01-30T12:55:37;10.77;;;5.53;;
19095;SDS011;9680;52.520;13.332;2024-01-30T12:58:04;13.07;;;6.00;;
19095;SDS011;9680;52.520;13.332;2024-01-30T13:00:31;12.27;;;5.60;;
19095;SDS011;9680;52.520;13.332;2024-01-30T13:02:59;12.00;;;5.63;;
19095;SDS011;9680;52.520;13.332;2024-01-30T13:05:26;15.63;;;6.20;;
19095;SDS011;9680;52.520;13.332;2024-01-30T13:07:54;17.00;;;6.20;;
19095;SDS011;9680;52.520;13.332;2024-01-30T13:10:22;13.57;;;5.70;;
19095;SDS011;9680;52.520;13.332;2024-01-30T13:12:49;13.03;;;5.87;;
19095;SDS011;9680;52.520;13.332;2024-01-30T13:15:16;11.60;;;5.37;;
19095;SDS011;9680;52.520;13.332;2024-01-30T13:17:42;9.80;;;5.60;;
19095;SDS011;9680;52.520;13.332;2024-01-30T13:20:12;14.07;;;6.00;;
19095;SDS011;9680;52.520;13.332;2024-01-30T13:22:44;14.43;;;5.97;;
19095;SDS011;9680;52.520;13.332;2024-01-30T13:25:13;15.37;;;5.97;;
19095;SDS011;9680;52.520;13.332;2024-01-30T13:27:40;13.80;;;5.77;;
19095;SDS011;9680;52.520;13.332;2024-01-30T13:30:08;15.37;;;5.73;;
19095;SDS011;9680;52.520;13.332;2024-01-30T13:32:35;15.00;;;6.67;;
19095;SDS011;9680;52.520;13.332;2024-01-30T13:35:02;15.27;;;6.37;;
19095;SDS011;9680;52.520;13.332;2024-01-30T13:37:29;14.03;;;5.70;;
19095;SDS011;9680;52.520;13.332;2024-01-30T13:39:56;15.07;;;5.40;;
19095;SDS011;9680;52.520;13.332;2024-01-30T13:42:24;13.33;;;5.60;;
19095;SDS011;9680;52.520;13.332;2024-01-30T13:44:51;13.60;;;5.73;;
19095;SDS011;9680;52.520;13.332;2024-01-30T13:47:18;12.93;;;6.03;;
19095;SDS011;9680;52.520;13.332;2024-01-30T13:49:46;13.20;;;5.70;;
19095;SDS011;9680;52.520;13.332;2024-01-30T13:52:13;14.57;;;6.20;;
19095;SDS011;9680;52.520;13.332;2024-01-30T13:54:40;17.40;;;5.83;;
19095;SDS011;9680;52.520;13.332;2024-01-30T13:57:09;14.10;;;6.50;;
19095;SDS011;9680;52.520;13.332;2024-01-30T13:59:38;14.17;;;5.87;;
19095;SDS011;9680;52.520;13.332;2024-01-30T14:02:05;12.47;;;6.07;;
19095;SDS011;9680;52.520;13.332;2024-01-30T14:04:35;13.33;;;5.83;;
19095;SDS011;9680;52.520;13.332;2024-01-30T14:07:04;14.60;;;6.00;;
19095;SDS011;9680;52.520;13.332;2024-01-30T14:09:32;17.40;;;5.97;;
19095;SDS011;9680;52.520;13.332;2024-01-30T14:11:59;17.00;;;5.73;;
19095;SDS011;9680;52.520;13.332;2024-01-30T14:14:26;15.80;;;6.03;;
19095;SDS011;9680;52.520;13.332;2024-01-30T14:16:54;13.50;;;5.80;;
19095;SDS011;9680;52.520;13.332;2024-01-30T14:19:21;18.70;;;6.03;;
19095;SDS011;9680;52.520;13.332;2024-01-30T14:21:48;15.17;;;5.67;;
19095;SDS011;9680;52.520;13.332;2024-01-30T14:24:14;11.30;;;5.40;;
19095;SDS011;9680;52.520;13.332;2024-01-30T14:26:41;16.03;;;5.80;;
19095;SDS011;9680;52.520;13.332;2024-01-30T14:29:09;16.53;;;6.10;;
19095;SDS011;9680;52.520;13.332;2024-01-30T14:31:36;14.40;;;5.50;;
19095;SDS011;9680;52.520;13.332;2024-01-30T14:34:04;15.47;;;5.20;;
19095;SDS011;9680;52.520;13.332;2024-01-30T14:36:30;15.90;;;6.50;;
19095;SDS011;9680;52.520;13.332;2024-01-30T14:38:57;17.80;;;5.70;;
19095;SDS011;9680;52.520;13.332;2024-01-30T14:41:24;13.77;;;6.00;;
19095;SDS011;9680;52.520;13.332;2024-01-30T14:43:51;16.87;;;6.37;;
19095;SDS011;9680;52.520;13.332;2024-01-30T14:46:17;16.53;;;5.83;;
19095;SDS011;9680;52.520;13.332;2024-01-30T14:48:44;14.43;;;6.40;;
19095;SDS011;9680;52.520;13.332;2024-01-30T14:51:13;14.00;;;5.70;;
19095;SDS011;9680;52.520;13.332;2024-01-30T14:53:39;12.60;;;5.43;;
19095;SDS011;9680;52.520;13.332;2024-01-30T14:56:06;12.73;;;5.93;;
19095;SDS011;9680;52.520;13.332;2024-01-30T14:58:33;12.17;;;5.70;;
19095;SDS011;9680;52.520;13.332;2024-01-30T15:01:01;14.90;;;6.87;;
19095;SDS011;9680;52.520;13.332;2024-01-30T15:03:28;16.97;;;6.00;;
19095;SDS011;9680;52.520;13.332;2024-01-30T15:05:54;14.43;;;6.77;;
19095;SDS011;9680;52.520;13.332;2024-01-30T15:08:23;14.03;;;6.10;;
19095;SDS011;9680;52.520;13.332;2024-01-30T15:10:50;11.57;;;5.40;;
19095;SDS011;9680;52.520;13.332;2024-01-30T15:13:17;12.57;;;5.80;;